createdAt,value
2022-09-09T00:02:14.042Z,75
2022-09-09T00:12:16.042Z,76
2022-09-09T00:22:17.907Z,76
2022-09-09T00:32:20.340Z,77
2022-09-09T00:42:22.118Z,79
2022-09-09T00:52:24.726Z,81
2022-09-09T01:02:27.210Z,83
2022-09-09T01:12:29.713Z,83
2022-09-09T01:22:31.669Z,84
2022-09-09T01:32:34.057Z,83
2022-09-09T01:42:36.315Z,82
2022-09-09T01:52:38.763Z,84
2022-09-09T02:02:41.427Z,85
2022-09-09T02:12:43.677Z,88
2022-09-09T02:32:47.454Z,92
2022-09-09T02:42:49.429Z,93
2022-09-09T02:52:51.350Z,93
2022-09-09T03:02:53.289Z,93
2022-09-09T03:12:55.726Z,94
2022-09-09T03:22:58.310Z,95
2022-09-09T03:33:00.644Z,95
2022-09-09T03:43:03.074Z,96
2022-09-09T03:53:05.426Z,96
2022-09-09T04:03:07.449Z,96
2022-09-09T04:13:09.402Z,96
2022-09-09T04:23:11.093Z,95
2022-09-09T04:33:13.251Z,95
2022-09-09T04:43:14.974Z,95
2022-09-09T04:53:17.489Z,94
2022-09-09T05:03:20.021Z,93
2022-09-09T05:13:22.311Z,94
2022-09-09T05:23:24.698Z,94
2022-09-09T05:33:26.785Z,93
2022-09-09T05:43:28.570Z,95
2022-09-09T05:53:31.046Z,94
2022-09-09T06:03:33.312Z,91
2022-09-09T06:13:35.573Z,91
2022-09-09T06:23:37.573Z,91
2022-09-09T06:33:39.578Z,91
2022-09-09T06:43:42.051Z,91
2022-09-09T07:03:46.609Z,92
2022-09-09T07:13:48.455Z,90
2022-09-09T07:43:54.777Z,75
2022-09-09T08:03:59.050Z,84
2022-09-09T08:14:02.447Z,100
2022-09-09T08:24:03.470Z,100
2022-09-09T08:34:05.005Z,93
2022-09-09T08:44:07.562Z,91
2022-09-09T08:54:09.230Z,100
2022-09-09T09:04:11.153Z,91
2022-09-09T10:14:26.190Z,73
2022-09-09T10:54:35.293Z,73
2022-09-09T11:04:37.643Z,67
2022-09-09T11:14:39.727Z,67
2022-09-09T11:24:42.353Z,66
2022-09-09T11:34:44.055Z,67
2022-09-09T11:44:46.514Z,66
2022-09-09T11:54:48.519Z,66
2022-09-09T12:04:50.821Z,67
2022-09-09T12:14:53.344Z,66
2022-09-09T12:24:55.210Z,65
2022-09-09T12:55:00.910Z,80
2022-09-09T13:25:07.571Z,73
2022-09-09T14:45:25.514Z,100
2022-09-09T15:05:29.770Z,100
2022-09-09T15:15:31.741Z,100
2022-09-09T15:25:33.811Z,100
2022-09-09T15:35:35.514Z,100
2022-09-09T15:45:37.190Z,100
2022-09-09T16:05:41.557Z,100
2022-09-09T16:25:45.729Z,100
2022-09-09T17:05:53.700Z,100
2022-09-09T17:15:58.603Z,100
2022-09-09T17:25:57.960Z,100
2022-09-09T17:46:02.321Z,100
2022-09-09T17:56:04.908Z,100
2022-09-09T18:06:06.886Z,100
2022-09-09T18:16:08.713Z,100
2022-09-09T18:36:20.792Z,100
2022-09-09T18:46:23.379Z,100
2022-09-09T18:56:25.628Z,100
2022-09-09T19:06:28.279Z,100
2022-09-09T19:16:30.833Z,100
2022-09-09T19:36:35.797Z,100
2022-09-09T19:46:38.415Z,100
2022-09-09T19:56:40.683Z,100
2022-09-09T20:06:42.860Z,100
2022-09-09T20:16:45.141Z,100
2022-09-09T20:26:46.989Z,100
2022-09-09T20:36:49.354Z,100
2022-09-09T20:46:51.641Z,100
2022-09-09T20:56:53.708Z,100
2022-09-09T21:06:55.677Z,100
2022-09-09T21:16:57.774Z,100
2022-09-09T21:37:01.646Z,100
2022-09-09T21:47:04.244Z,100
2022-09-09T21:57:06.719Z,100
2022-09-09T22:07:08.668Z,100
2022-09-09T22:27:12.882Z,100
2022-09-09T22:37:15.256Z,100
2022-09-09T22:47:16.992Z,100
2022-09-09T22:57:19.087Z,100
2022-09-09T23:07:21.482Z,100
2022-09-09T23:17:23.553Z,100
2022-09-09T23:27:25.885Z,100
2022-09-09T23:37:28.106Z,100
2022-09-09T23:47:30.505Z,100
2022-09-09T23:57:32.277Z,100
